sensor_id;sensor_type;location;lat;lon;timestamp;P1;durP1;ratioP1;P2;durP2;ratioP2
51925;SDS011;37952;51.938;15.480;2022-12-13T00:00:22;7.90;;;5.60;;
51925;SDS011;37952;51.938;15.480;2022-12-13T00:03:45;5.30;;;4.60;;
51925;SDS011;37952;51.938;15.480;2022-12-13T00:06:48;5.40;;;5.10;;
51925;SDS011;37952;51.938;15.480;2022-12-13T00:09:52;5.50;;;5.10;;
51925;SDS011;37952;51.938;15.480;2022-12-13T00:12:55;4.70;;;4.40;;
51925;SDS011;37952;51.938;15.480;2022-12-13T00:15:58;4.90;;;4.50;;
51925;SDS011;37952;51.938;15.480;2022-12-13T00:19:04;4.60;;;4.30;;
51925;SDS011;37952;51.938;15.480;2022-12-13T00:22:07;4.70;;;4.40;;
51925;SDS011;37952;51.938;15.480;2022-12-13T00:25:10;5.60;;;5.10;;
51925;SDS011;37952;51.938;15.480;2022-12-13T00:28:14;5.50;;;5.10;;
51925;SDS011;37952;51.938;15.480;2022-12-13T00:31:17;5.20;;;4.80;;
51925;SDS011;37952;51.938;15.480;2022-12-13T00:34:41;6.40;;;5.60;;
51925;SDS011;37952;51.938;15.480;2022-12-13T00:37:44;4.90;;;4.60;;
51925;SDS011;37952;51.938;15.480;2022-12-13T00:40:47;5.30;;;4.80;;
51925;SDS011;37952;51.938;15.480;2022-12-13T00:43:50;4.80;;;4.40;;
51925;SDS011;37952;51.938;15.480;2022-12-13T00:46:53;5.40;;;5.00;;
51925;SDS011;37952;51.938;15.480;2022-12-13T00:49:56;5.40;;;5.00;;
51925;SDS011;37952;51.938;15.480;2022-12-13T00:53:01;4.40;;;4.10;;
51925;SDS011;37952;51.938;15.480;2022-12-13T00:56:08;5.80;;;5.30;;
51925;SDS011;37952;51.938;15.480;2022-12-13T00:59:15;5.30;;;5.00;;
51925;SDS011;37952;51.938;15.480;2022-12-13T01:02:18;5.80;;;5.40;;
51925;SDS011;37952;51.938;15.480;2022-12-13T01:05:21;5.40;;;5.00;;
51925;SDS011;37952;51.938;15.480;2022-12-13T01:08:44;6.10;;;5.70;;
51925;SDS011;37952;51.938;15.480;2022-12-13T01:11:48;5.60;;;5.20;;
51925;SDS011;37952;51.938;15.480;2022-12-13T01:14:51;5.90;;;5.40;;
51925;SDS011;37952;51.938;15.480;2022-12-13T01:17:58;6.00;;;5.50;;
51925;SDS011;37952;51.938;15.480;2022-12-13T01:21:02;5.20;;;4.80;;
51925;SDS011;37952;51.938;15.480;2022-12-13T01:24:08;6.20;;;5.60;;
51925;SDS011;37952;51.938;15.480;2022-12-13T01:27:11;5.60;;;5.10;;
51925;SDS011;37952;51.938;15.480;2022-12-13T01:30:14;5.40;;;5.00;;
51925;SDS011;37952;51.938;15.480;2022-12-13T01:33:16;6.60;;;6.10;;
51925;SDS011;37952;51.938;15.480;2022-12-13T01:36:20;6.30;;;5.80;;
51925;SDS011;37952;51.938;15.480;2022-12-13T01:39:29;6.10;;;5.60;;
51925;SDS011;37952;51.938;15.480;2022-12-13T01:42:39;6.00;;;5.40;;
51925;SDS011;37952;51.938;15.480;2022-12-13T01:45:42;6.40;;;5.80;;
51925;SDS011;37952;51.938;15.480;2022-12-13T01:48:47;7.20;;;6.50;;
51925;SDS011;37952;51.938;15.480;2022-12-13T01:51:55;7.60;;;6.80;;
51925;SDS011;37952;51.938;15.480;2022-12-13T01:55:03;6.80;;;6.20;;
51925;SDS011;37952;51.938;15.480;2022-12-13T01:58:09;6.60;;;6.00;;
51925;SDS011;37952;51.938;15.480;2022-12-13T02:01:14;6.80;;;6.20;;
51925;SDS011;37952;51.938;15.480;2022-12-13T02:04:20;7.00;;;6.30;;
51925;SDS011;37952;51.938;15.480;2022-12-13T02:07:31;9.10;;;6.80;;
51925;SDS011;37952;51.938;15.480;2022-12-13T02:10:36;7.40;;;6.70;;
51925;SDS011;37952;51.938;15.480;2022-12-13T02:13:42;7.50;;;6.70;;
51925;SDS011;37952;51.938;15.480;2022-12-13T02:16:55;7.70;;;7.00;;
51925;SDS011;37952;51.938;15.480;2022-12-13T02:27:49;7.40;;;6.70;;
51925;SDS011;37952;51.938;15.480;2022-12-13T02:31:28;6.60;;;6.00;;
51925;SDS011;37952;51.938;15.480;2022-12-13T02:38:13;7.40;;;6.70;;
51925;SDS011;37952;51.938;15.480;2022-12-13T02:41:29;8.50;;;6.90;;
51925;SDS011;37952;51.938;15.480;2022-12-13T02:44:39;6.50;;;5.70;;
51925;SDS011;37952;51.938;15.480;2022-12-13T02:47:50;6.70;;;6.20;;
51925;SDS011;37952;51.938;15.480;2022-12-13T02:50:57;6.50;;;5.90;;
51925;SDS011;37952;51.938;15.480;2022-12-13T02:54:02;7.00;;;6.50;;
51925;SDS011;37952;51.938;15.480;2022-12-13T02:57:25;6.90;;;6.30;;
51925;SDS011;37952;51.938;15.480;2022-12-13T03:07:18;7.00;;;6.30;;
51925;SDS011;37952;51.938;15.480;2022-12-13T03:10:36;6.70;;;5.70;;
51925;SDS011;37952;51.938;15.480;2022-12-13T03:13:52;6.50;;;5.90;;
51925;SDS011;37952;51.938;15.480;2022-12-13T03:16:58;5.90;;;5.40;;
51925;SDS011;37952;51.938;15.480;2022-12-13T03:20:04;7.50;;;6.60;;
51925;SDS011;37952;51.938;15.480;2022-12-13T03:23:24;6.40;;;5.20;;
51925;SDS011;37952;51.938;15.480;2022-12-13T03:26:28;5.90;;;5.50;;
51925;SDS011;37952;51.938;15.480;2022-12-13T03:29:31;6.40;;;5.80;;
51925;SDS011;37952;51.938;15.480;2022-12-13T03:32:34;6.60;;;5.90;;
51925;SDS011;37952;51.938;15.480;2022-12-13T03:35:38;6.50;;;6.00;;
51925;SDS011;37952;51.938;15.480;2022-12-13T03:38:47;5.70;;;5.30;;
51925;SDS011;37952;51.938;15.480;2022-12-13T03:41:53;6.40;;;5.80;;
51925;SDS011;37952;51.938;15.480;2022-12-13T03:44:56;6.50;;;5.90;;
51925;SDS011;37952;51.938;15.480;2022-12-13T03:47:59;5.80;;;5.20;;
51925;SDS011;37952;51.938;15.480;2022-12-13T03:51:02;5.50;;;5.10;;
51925;SDS011;37952;51.938;15.480;2022-12-13T03:54:05;6.10;;;5.70;;
51925;SDS011;37952;51.938;15.480;2022-12-13T03:57:08;5.90;;;5.40;;
51925;SDS011;37952;51.938;15.480;2022-12-13T04:00:11;6.00;;;5.60;;
51925;SDS011;37952;51.938;15.480;2022-12-13T04:03:16;5.20;;;4.70;;
51925;SDS011;37952;51.938;15.480;2022-12-13T04:06:19;5.50;;;5.10;;
51925;SDS011;37952;51.938;15.480;2022-12-13T04:09:25;7.20;;;5.30;;
51925;SDS011;37952;51.938;15.480;2022-12-13T04:12:28;5.50;;;5.10;;
51925;SDS011;37952;51.938;15.480;2022-12-13T04:15:50;5.10;;;4.80;;
51925;SDS011;37952;51.938;15.480;2022-12-13T04:18:53;5.90;;;5.40;;
51925;SDS011;37952;51.938;15.480;2022-12-13T04:21:56;5.40;;;5.00;;
51925;SDS011;37952;51.938;15.480;2022-12-13T04:24:58;5.70;;;5.30;;
51925;SDS011;37952;51.938;15.480;2022-12-13T04:28:02;5.50;;;5.10;;
51925;SDS011;37952;51.938;15.480;2022-12-13T04:31:05;5.40;;;5.00;;
51925;SDS011;37952;51.938;15.480;2022-12-13T04:34:08;6.10;;;5.60;;
51925;SDS011;37952;51.938;15.480;2022-12-13T04:37:11;5.10;;;4.80;;
51925;SDS011;37952;51.938;15.480;2022-12-13T04:40:14;5.10;;;4.60;;
51925;SDS011;37952;51.938;15.480;2022-12-13T04:43:23;5.50;;;5.00;;
51925;SDS011;37952;51.938;15.480;2022-12-13T04:46:26;5.40;;;5.00;;
51925;SDS011;37952;51.938;15.480;2022-12-13T04:49:29;6.00;;;5.00;;
51925;SDS011;37952;51.938;15.480;2022-12-13T04:52:32;4.90;;;4.50;;
51925;SDS011;37952;51.938;15.480;2022-12-13T04:55:35;4.40;;;4.00;;
51925;SDS011;37952;51.938;15.480;2022-12-13T04:58:43;4.00;;;3.80;;
51925;SDS011;37952;51.938;15.480;2022-12-13T05:01:47;5.30;;;5.00;;
51925;SDS011;37952;51.938;15.480;2022-12-13T05:04:51;5.90;;;5.50;;
51925;SDS011;37952;51.938;15.480;2022-12-13T05:07:55;6.10;;;5.70;;
51925;SDS011;37952;51.938;15.480;2022-12-13T05:10:58;5.00;;;4.70;;
51925;SDS011;37952;51.938;15.480;2022-12-13T05:14:01;5.60;;;5.20;;
51925;SDS011;37952;51.938;15.480;2022-12-13T05:17:04;5.80;;;5.30;;
51925;SDS011;37952;51.938;15.480;2022-12-13T05:20:07;6.00;;;5.60;;
51925;SDS011;37952;51.938;15.480;2022-12-13T05:23:10;5.90;;;5.40;;
51925;SDS011;37952;51.938;15.480;2022-12-13T05:26:13;5.40;;;4.80;;
51925;SDS011;37952;51.938;15.480;2022-12-13T05:29:16;4.90;;;4.60;;
51925;SDS011;37952;51.938;15.480;2022-12-13T05:32:20;5.70;;;5.20;;
51925;SDS011;37952;51.938;15.480;2022-12-13T05:35:23;4.80;;;4.40;;
51925;SDS011;37952;51.938;15.480;2022-12-13T05:38:26;5.40;;;5.00;;
51925;SDS011;37952;51.938;15.480;2022-12-13T05:41:31;6.90;;;4.80;;
51925;SDS011;37952;51.938;15.480;2022-12-13T05:44:35;5.50;;;5.10;;
51925;SDS011;37952;51.938;15.480;2022-12-13T05:47:38;6.00;;;5.50;;
51925;SDS011;37952;51.938;15.480;2022-12-13T05:50:41;5.70;;;5.30;;
51925;SDS011;37952;51.938;15.480;2022-12-13T05:53:46;5.60;;;5.20;;
51925;SDS011;37952;51.938;15.480;2022-12-13T05:56:55;5.30;;;4.90;;
51925;SDS011;37952;51.938;15.480;2022-12-13T05:59:58;5.30;;;4.80;;
51925;SDS011;37952;51.938;15.480;2022-12-13T06:03:01;5.20;;;4.80;;
51925;SDS011;37952;51.938;15.480;2022-12-13T06:06:04;6.60;;;5.80;;
51925;SDS011;37952;51.938;15.480;2022-12-13T06:09:08;6.00;;;5.60;;
51925;SDS011;37952;51.938;15.480;2022-12-13T06:12:11;6.80;;;6.20;;
51925;SDS011;37952;51.938;15.480;2022-12-13T06:15:33;6.00;;;5.50;;
51925;SDS011;37952;51.938;15.480;2022-12-13T06:18:36;6.50;;;5.90;;
51925;SDS011;37952;51.938;15.480;2022-12-13T06:21:39;6.20;;;5.70;;
51925;SDS011;37952;51.938;15.480;2022-12-13T06:24:48;6.60;;;6.00;;
51925;SDS011;37952;51.938;15.480;2022-12-13T06:27:51;6.40;;;5.80;;
51925;SDS011;37952;51.938;15.480;2022-12-13T06:30:57;6.90;;;6.30;;
51925;SDS011;37952;51.938;15.480;2022-12-13T06:34:02;6.40;;;5.90;;
51925;SDS011;37952;51.938;15.480;2022-12-13T06:37:16;6.70;;;6.10;;
51925;SDS011;37952;51.938;15.480;2022-12-13T06:40:19;8.50;;;6.30;;
51925;SDS011;37952;51.938;15.480;2022-12-13T06:43:24;7.20;;;6.60;;
51925;SDS011;37952;51.938;15.480;2022-12-13T06:46:27;7.10;;;6.50;;
51925;SDS011;37952;51.938;15.480;2022-12-13T06:49:31;6.20;;;5.70;;
51925;SDS011;37952;51.938;15.480;2022-12-13T06:52:34;7.20;;;6.00;;
51925;SDS011;37952;51.938;15.480;2022-12-13T06:55:38;7.30;;;6.30;;
51925;SDS011;37952;51.938;15.480;2022-12-13T06:58:41;7.30;;;6.70;;
51925;SDS011;37952;51.938;15.480;2022-12-13T07:01:44;7.00;;;6.40;;
51925;SDS011;37952;51.938;15.480;2022-12-13T07:04:52;7.40;;;6.80;;
51925;SDS011;37952;51.938;15.480;2022-12-13T07:07:56;7.20;;;6.60;;
51925;SDS011;37952;51.938;15.480;2022-12-13T07:10:59;7.80;;;6.50;;
51925;SDS011;37952;51.938;15.480;2022-12-13T07:14:02;6.30;;;5.90;;
51925;SDS011;37952;51.938;15.480;2022-12-13T07:17:05;7.10;;;6.40;;
51925;SDS011;37952;51.938;15.480;2022-12-13T07:20:08;6.80;;;6.10;;
51925;SDS011;37952;51.938;15.480;2022-12-13T07:23:11;7.50;;;6.80;;
51925;SDS011;37952;51.938;15.480;2022-12-13T07:26:15;7.60;;;6.90;;
51925;SDS011;37952;51.938;15.480;2022-12-13T07:29:18;6.60;;;6.00;;
51925;SDS011;37952;51.938;15.480;2022-12-13T07:32:24;6.50;;;6.00;;
51925;SDS011;37952;51.938;15.480;2022-12-13T07:35:27;6.00;;;5.50;;
51925;SDS011;37952;51.938;15.480;2022-12-13T07:38:30;7.60;;;6.90;;
51925;SDS011;37952;51.938;15.480;2022-12-13T07:41:33;7.90;;;6.50;;
51925;SDS011;37952;51.938;15.480;2022-12-13T07:47:42;7.30;;;6.50;;
51925;SDS011;37952;51.938;15.480;2022-12-13T07:50:46;7.10;;;6.50;;
51925;SDS011;37952;51.938;15.480;2022-12-13T07:53:56;7.00;;;6.30;;
51925;SDS011;37952;51.938;15.480;2022-12-13T07:56:59;7.00;;;6.40;;
51925;SDS011;37952;51.938;15.480;2022-12-13T08:00:06;8.10;;;7.30;;
51925;SDS011;37952;51.938;15.480;2022-12-13T08:03:09;6.80;;;6.20;;
51925;SDS011;37952;51.938;15.480;2022-12-13T08:06:27;7.90;;;7.10;;
51925;SDS011;37952;51.938;15.480;2022-12-13T08:09:30;11.70;;;7.90;;
51925;SDS011;37952;51.938;15.480;2022-12-13T08:12:32;7.40;;;6.60;;
51925;SDS011;37952;51.938;15.480;2022-12-13T08:15:35;8.90;;;7.10;;
51925;SDS011;37952;51.938;15.480;2022-12-13T08:18:38;8.60;;;7.60;;
51925;SDS011;37952;51.938;15.480;2022-12-13T08:21:41;9.30;;;8.20;;
51925;SDS011;37952;51.938;15.480;2022-12-13T08:25:03;10.30;;;8.60;;
51925;SDS011;37952;51.938;15.480;2022-12-13T08:28:08;11.40;;;9.10;;
51925;SDS011;37952;51.938;15.480;2022-12-13T08:31:10;10.40;;;8.60;;
51925;SDS011;37952;51.938;15.480;2022-12-13T08:34:15;11.00;;;9.00;;
51925;SDS011;37952;51.938;15.480;2022-12-13T08:37:17;10.10;;;9.10;;
51925;SDS011;37952;51.938;15.480;2022-12-13T08:40:20;9.70;;;8.50;;
51925;SDS011;37952;51.938;15.480;2022-12-13T08:43:23;8.80;;;7.40;;
51925;SDS011;37952;51.938;15.480;2022-12-13T08:46:26;7.20;;;6.60;;
51925;SDS011;37952;51.938;15.480;2022-12-13T08:49:30;9.10;;;8.10;;
51925;SDS011;37952;51.938;15.480;2022-12-13T08:52:33;9.30;;;7.50;;
51925;SDS011;37952;51.938;15.480;2022-12-13T08:55:42;9.00;;;8.10;;
51925;SDS011;37952;51.938;15.480;2022-12-13T08:58:49;8.50;;;7.30;;
51925;SDS011;37952;51.938;15.480;2022-12-13T09:01:55;9.30;;;8.10;;
51925;SDS011;37952;51.938;15.480;2022-12-13T09:05:06;9.10;;;7.50;;
51925;SDS011;37952;51.938;15.480;2022-12-13T09:08:10;8.20;;;7.30;;
51925;SDS011;37952;51.938;15.480;2022-12-13T09:11:26;8.00;;;7.20;;
51925;SDS011;37952;51.938;15.480;2022-12-13T09:14:38;7.80;;;7.00;;
51925;SDS011;37952;51.938;15.480;2022-12-13T09:17:47;9.90;;;8.20;;
51925;SDS011;37952;51.938;15.480;2022-12-13T09:20:54;10.00;;;8.50;;
51925;SDS011;37952;51.938;15.480;2022-12-13T09:24:13;9.20;;;8.00;;
51925;SDS011;37952;51.938;15.480;2022-12-13T09:27:26;10.00;;;8.80;;
51925;SDS011;37952;51.938;15.480;2022-12-13T09:30:30;10.10;;;8.40;;
51925;SDS011;37952;51.938;15.480;2022-12-13T09:33:33;10.20;;;9.10;;
51925;SDS011;37952;51.938;15.480;2022-12-13T09:36:43;10.80;;;9.30;;
51925;SDS011;37952;51.938;15.480;2022-12-13T09:39:48;11.00;;;8.50;;
51925;SDS011;37952;51.938;15.480;2022-12-13T09:42:57;11.00;;;8.80;;
51925;SDS011;37952;51.938;15.480;2022-12-13T09:46:31;11.70;;;9.80;;
51925;SDS011;37952;51.938;15.480;2022-12-13T09:49:46;9.60;;;8.10;;
51925;SDS011;37952;51.938;15.480;2022-12-13T09:52:55;9.00;;;8.10;;
51925;SDS011;37952;51.938;15.480;2022-12-13T09:56:01;8.80;;;7.90;;
51925;SDS011;37952;51.938;15.480;2022-12-13T09:59:12;10.10;;;8.60;;
51925;SDS011;37952;51.938;15.480;2022-12-13T10:05:29;10.20;;;8.00;;
51925;SDS011;37952;51.938;15.480;2022-12-13T10:08:42;13.10;;;9.50;;
51925;SDS011;37952;51.938;15.480;2022-12-13T10:11:49;18.30;;;9.40;;
51925;SDS011;37952;51.938;15.480;2022-12-13T10:14:56;8.90;;;8.10;;
51925;SDS011;37952;51.938;15.480;2022-12-13T10:18:02;11.80;;;9.20;;
51925;SDS011;37952;51.938;15.480;2022-12-13T10:21:10;9.30;;;8.40;;
51925;SDS011;37952;51.938;15.480;2022-12-13T10:24:18;10.30;;;8.00;;
51925;SDS011;37952;51.938;15.480;2022-12-13T10:27:43;8.50;;;7.70;;
51925;SDS011;37952;51.938;15.480;2022-12-13T10:30:48;9.20;;;7.50;;
51925;SDS011;37952;51.938;15.480;2022-12-13T10:33:53;8.20;;;7.40;;
51925;SDS011;37952;51.938;15.480;2022-12-13T10:36:58;8.90;;;8.10;;
51925;SDS011;37952;51.938;15.480;2022-12-13T10:40:01;7.90;;;7.20;;
51925;SDS011;37952;51.938;15.480;2022-12-13T10:43:12;7.70;;;7.10;;
51925;SDS011;37952;51.938;15.480;2022-12-13T10:46:20;7.90;;;7.20;;
51925;SDS011;37952;51.938;15.480;2022-12-13T10:49:29;8.50;;;7.70;;
51925;SDS011;37952;51.938;15.480;2022-12-13T10:52:39;8.20;;;7.40;;
51925;SDS011;37952;51.938;15.480;2022-12-13T10:55:52;8.90;;;7.70;;
51925;SDS011;37952;51.938;15.480;2022-12-13T11:02:28;8.50;;;7.70;;
51925;SDS011;37952;51.938;15.480;2022-12-13T11:05:35;9.10;;;7.30;;
51925;SDS011;37952;51.938;15.480;2022-12-13T11:08:42;8.10;;;7.30;;
51925;SDS011;37952;51.938;15.480;2022-12-13T11:11:45;7.00;;;6.50;;
51925;SDS011;37952;51.938;15.480;2022-12-13T11:15:00;8.80;;;7.80;;
51925;SDS011;37952;51.938;15.480;2022-12-13T11:18:10;9.10;;;8.20;;
51925;SDS011;37952;51.938;15.480;2022-12-13T11:21:31;7.60;;;7.00;;
51925;SDS011;37952;51.938;15.480;2022-12-13T11:24:37;8.60;;;7.50;;
51925;SDS011;37952;51.938;15.480;2022-12-13T11:41:49;7.70;;;7.10;;
51925;SDS011;37952;51.938;15.480;2022-12-13T11:45:09;7.70;;;7.00;;
51925;SDS011;37952;51.938;15.480;2022-12-13T11:51:55;7.80;;;7.00;;
51925;SDS011;37952;51.938;15.480;2022-12-13T11:55:14;9.90;;;7.30;;
51925;SDS011;37952;51.938;15.480;2022-12-13T11:58:32;8.80;;;7.80;;
51925;SDS011;37952;51.938;15.480;2022-12-13T12:02:08;8.50;;;7.50;;
51925;SDS011;37952;51.938;15.480;2022-12-13T12:09:21;8.60;;;7.80;;
51925;SDS011;37952;51.938;15.480;2022-12-13T12:12:19;6.90;;;6.30;;
51925;SDS011;37952;51.938;15.480;2022-12-13T12:15:45;7.30;;;6.70;;
51925;SDS011;37952;51.938;15.480;2022-12-13T12:19:07;7.90;;;7.10;;
51925;SDS011;37952;51.938;15.480;2022-12-13T12:25:55;8.20;;;7.40;;
51925;SDS011;37952;51.938;15.480;2022-12-13T12:32:49;6.50;;;6.00;;
51925;SDS011;37952;51.938;15.480;2022-12-13T12:36:05;6.90;;;6.30;;
51925;SDS011;37952;51.938;15.480;2022-12-13T12:42:43;7.70;;;7.00;;
51925;SDS011;37952;51.938;15.480;2022-12-13T12:56:18;6.80;;;6.40;;
51925;SDS011;37952;51.938;15.480;2022-12-13T13:06:26;9.30;;;7.60;;
51925;SDS011;37952;51.938;15.480;2022-12-13T13:09:33;7.30;;;6.70;;
51925;SDS011;37952;51.938;15.480;2022-12-13T13:12:39;7.60;;;6.80;;
51925;SDS011;37952;51.938;15.480;2022-12-13T13:15:51;8.40;;;7.50;;
51925;SDS011;37952;51.938;15.480;2022-12-13T13:18:57;13.10;;;7.90;;
51925;SDS011;37952;51.938;15.480;2022-12-13T13:22:02;8.80;;;7.80;;
51925;SDS011;37952;51.938;15.480;2022-12-13T13:28:33;8.70;;;7.90;;
51925;SDS011;37952;51.938;15.480;2022-12-13T13:31:53;10.70;;;8.00;;
51925;SDS011;37952;51.938;15.480;2022-12-13T13:38:28;9.30;;;7.90;;
51925;SDS011;37952;51.938;15.480;2022-12-13T13:41:55;9.00;;;7.70;;
51925;SDS011;37952;51.938;15.480;2022-12-13T13:45:16;11.60;;;7.50;;
51925;SDS011;37952;51.938;15.480;2022-12-13T13:51:50;9.10;;;7.90;;
51925;SDS011;37952;51.938;15.480;2022-12-13T13:55:42;8.00;;;6.50;;
51925;SDS011;37952;51.938;15.480;2022-12-13T13:59:01;8.30;;;7.60;;
51925;SDS011;37952;51.938;15.480;2022-12-13T14:13:05;11.00;;;8.10;;
51925;SDS011;37952;51.938;15.480;2022-12-13T14:27:04;8.20;;;6.80;;
51925;SDS011;37952;51.938;15.480;2022-12-13T14:30:11;9.10;;;6.90;;
51925;SDS011;37952;51.938;15.480;2022-12-13T14:33:30;9.00;;;8.20;;
51925;SDS011;37952;51.938;15.480;2022-12-13T14:36:33;8.00;;;7.20;;
51925;SDS011;37952;51.938;15.480;2022-12-13T14:39:42;7.80;;;7.00;;
51925;SDS011;37952;51.938;15.480;2022-12-13T14:42:49;12.30;;;7.60;;
51925;SDS011;37952;51.938;15.480;2022-12-13T14:46:05;7.70;;;7.00;;
51925;SDS011;37952;51.938;15.480;2022-12-13T14:49:09;8.00;;;7.20;;
51925;SDS011;37952;51.938;15.480;2022-12-13T14:52:19;7.90;;;7.20;;
51925;SDS011;37952;51.938;15.480;2022-12-13T14:58:36;7.70;;;7.00;;
51925;SDS011;37952;51.938;15.480;2022-12-13T15:01:40;10.60;;;7.60;;
51925;SDS011;37952;51.938;15.480;2022-12-13T15:04:44;8.90;;;8.10;;
51925;SDS011;37952;51.938;15.480;2022-12-13T15:07:48;8.80;;;7.90;;
51925;SDS011;37952;51.938;15.480;2022-12-13T15:10:54;8.10;;;7.30;;
51925;SDS011;37952;51.938;15.480;2022-12-13T15:13:59;9.80;;;7.60;;
51925;SDS011;37952;51.938;15.480;2022-12-13T15:17:02;10.70;;;7.00;;
51925;SDS011;37952;51.938;15.480;2022-12-13T15:26:31;8.50;;;7.60;;
51925;SDS011;37952;51.938;15.480;2022-12-13T15:29:35;9.90;;;7.00;;
51925;SDS011;37952;51.938;15.480;2022-12-13T15:33:00;8.90;;;7.70;;
51925;SDS011;37952;51.938;15.480;2022-12-13T15:36:22;11.60;;;8.20;;
51925;SDS011;37952;51.938;15.480;2022-12-13T15:39:28;13.40;;;8.40;;
51925;SDS011;37952;51.938;15.480;2022-12-13T15:42:33;10.60;;;9.00;;
51925;SDS011;37952;51.938;15.480;2022-12-13T15:45:38;10.30;;;8.50;;
51925;SDS011;37952;51.938;15.480;2022-12-13T15:48:42;11.50;;;8.30;;
51925;SDS011;37952;51.938;15.480;2022-12-13T15:51:54;14.60;;;8.60;;
51925;SDS011;37952;51.938;15.480;2022-12-13T15:58:28;11.40;;;8.40;;
51925;SDS011;37952;51.938;15.480;2022-12-13T16:01:36;8.30;;;7.30;;
51925;SDS011;37952;51.938;15.480;2022-12-13T16:04:39;8.70;;;7.10;;
51925;SDS011;37952;51.938;15.480;2022-12-13T16:07:42;9.90;;;8.00;;
51925;SDS011;37952;51.938;15.480;2022-12-13T16:10:46;10.50;;;8.80;;
51925;SDS011;37952;51.938;15.480;2022-12-13T16:13:50;9.30;;;6.80;;
51925;SDS011;37952;51.938;15.480;2022-12-13T16:17:01;8.20;;;7.40;;
51925;SDS011;37952;51.938;15.480;2022-12-13T16:20:14;7.70;;;7.00;;
51925;SDS011;37952;51.938;15.480;2022-12-13T16:23:19;10.00;;;7.30;;
51925;SDS011;37952;51.938;15.480;2022-12-13T16:26:29;9.00;;;7.70;;
51925;SDS011;37952;51.938;15.480;2022-12-13T16:29:32;8.50;;;7.70;;
51925;SDS011;37952;51.938;15.480;2022-12-13T16:32:35;8.20;;;6.60;;
51925;SDS011;37952;51.938;15.480;2022-12-13T16:35:58;9.90;;;8.00;;
51925;SDS011;37952;51.938;15.480;2022-12-13T16:39:01;8.30;;;7.60;;
51925;SDS011;37952;51.938;15.480;2022-12-13T16:42:06;8.50;;;7.40;;
51925;SDS011;37952;51.938;15.480;2022-12-13T16:45:11;9.00;;;7.10;;
51925;SDS011;37952;51.938;15.480;2022-12-13T16:48:35;7.20;;;6.60;;
51925;SDS011;37952;51.938;15.480;2022-12-13T16:51:38;8.50;;;7.70;;
51925;SDS011;37952;51.938;15.480;2022-12-13T16:54:47;7.20;;;6.50;;
51925;SDS011;37952;51.938;15.480;2022-12-13T16:58:03;6.80;;;6.30;;
51925;SDS011;37952;51.938;15.480;2022-12-13T17:01:08;6.80;;;5.90;;
51925;SDS011;37952;51.938;15.480;2022-12-13T17:04:13;8.30;;;6.20;;
51925;SDS011;37952;51.938;15.480;2022-12-13T17:07:22;7.00;;;6.30;;
51925;SDS011;37952;51.938;15.480;2022-12-13T17:10:25;6.70;;;6.20;;
51925;SDS011;37952;51.938;15.480;2022-12-13T17:13:29;7.20;;;6.70;;
51925;SDS011;37952;51.938;15.480;2022-12-13T17:16:32;6.60;;;6.00;;
51925;SDS011;37952;51.938;15.480;2022-12-13T17:19:35;8.20;;;6.90;;
51925;SDS011;37952;51.938;15.480;2022-12-13T17:22:39;8.10;;;6.70;;
51925;SDS011;37952;51.938;15.480;2022-12-13T17:25:43;7.00;;;6.30;;
51925;SDS011;37952;51.938;15.480;2022-12-13T17:28:59;5.50;;;5.10;;
51925;SDS011;37952;51.938;15.480;2022-12-13T17:32:02;6.10;;;5.60;;
51925;SDS011;37952;51.938;15.480;2022-12-13T17:35:06;7.60;;;6.00;;
51925;SDS011;37952;51.938;15.480;2022-12-13T17:38:11;5.60;;;5.20;;
51925;SDS011;37952;51.938;15.480;2022-12-13T17:41:14;6.00;;;5.50;;
51925;SDS011;37952;51.938;15.480;2022-12-13T17:44:18;5.40;;;4.90;;
51925;SDS011;37952;51.938;15.480;2022-12-13T17:47:20;5.80;;;5.30;;
51925;SDS011;37952;51.938;15.480;2022-12-13T17:50:24;5.20;;;4.90;;
51925;SDS011;37952;51.938;15.480;2022-12-13T17:53:26;5.80;;;5.40;;
51925;SDS011;37952;51.938;15.480;2022-12-13T17:56:30;5.00;;;4.70;;
51925;SDS011;37952;51.938;15.480;2022-12-13T17:59:33;5.20;;;4.70;;
51925;SDS011;37952;51.938;15.480;2022-12-13T18:02:44;5.50;;;5.00;;
51925;SDS011;37952;51.938;15.480;2022-12-13T18:05:57;10.90;;;6.20;;
51925;SDS011;37952;51.938;15.480;2022-12-13T18:09:01;5.40;;;5.00;;
51925;SDS011;37952;51.938;15.480;2022-12-13T18:12:04;5.90;;;5.30;;
51925;SDS011;37952;51.938;15.480;2022-12-13T18:15:10;6.80;;;5.10;;
51925;SDS011;37952;51.938;15.480;2022-12-13T18:18:13;6.00;;;5.40;;
51925;SDS011;37952;51.938;15.480;2022-12-13T18:21:17;6.30;;;5.60;;
51925;SDS011;37952;51.938;15.480;2022-12-13T18:24:20;6.10;;;5.60;;
51925;SDS011;37952;51.938;15.480;2022-12-13T18:27:23;6.40;;;5.80;;
51925;SDS011;37952;51.938;15.480;2022-12-13T18:30:26;6.60;;;5.10;;
51925;SDS011;37952;51.938;15.480;2022-12-13T18:33:29;6.20;;;5.20;;
51925;SDS011;37952;51.938;15.480;2022-12-13T18:36:33;6.30;;;5.60;;
51925;SDS011;37952;51.938;15.480;2022-12-13T18:39:36;10.50;;;5.70;;
51925;SDS011;37952;51.938;15.480;2022-12-13T18:42:39;6.00;;;5.20;;
51925;SDS011;37952;51.938;15.480;2022-12-13T18:45:42;5.60;;;5.10;;
51925;SDS011;37952;51.938;15.480;2022-12-13T18:48:46;13.20;;;6.30;;
51925;SDS011;37952;51.938;15.480;2022-12-13T18:51:49;7.80;;;7.00;;
51925;SDS011;37952;51.938;15.480;2022-12-13T18:54:51;5.90;;;5.30;;
51925;SDS011;37952;51.938;15.480;2022-12-13T18:57:56;6.20;;;5.60;;
51925;SDS011;37952;51.938;15.480;2022-12-13T19:00:59;5.10;;;4.60;;
51925;SDS011;37952;51.938;15.480;2022-12-13T19:04:03;5.90;;;5.30;;
51925;SDS011;37952;51.938;15.480;2022-12-13T19:07:06;9.40;;;6.20;;
51925;SDS011;37952;51.938;15.480;2022-12-13T19:10:10;6.80;;;6.10;;
51925;SDS011;37952;51.938;15.480;2022-12-13T19:13:13;7.20;;;5.90;;
51925;SDS011;37952;51.938;15.480;2022-12-13T19:16:17;9.00;;;5.50;;
51925;SDS011;37952;51.938;15.480;2022-12-13T19:19:22;8.30;;;5.60;;
51925;SDS011;37952;51.938;15.480;2022-12-13T19:22:25;11.90;;;6.20;;
51925;SDS011;37952;51.938;15.480;2022-12-13T19:25:30;5.90;;;5.30;;
51925;SDS011;37952;51.938;15.480;2022-12-13T19:28:33;6.30;;;5.70;;
51925;SDS011;37952;51.938;15.480;2022-12-13T19:31:39;5.60;;;5.10;;
51925;SDS011;37952;51.938;15.480;2022-12-13T19:34:42;7.10;;;5.30;;
51925;SDS011;37952;51.938;15.480;2022-12-13T19:37:45;5.40;;;4.90;;
51925;SDS011;37952;51.938;15.480;2022-12-13T19:40:48;10.10;;;6.20;;
51925;SDS011;37952;51.938;15.480;2022-12-13T19:43:51;7.50;;;6.20;;
51925;SDS011;37952;51.938;15.480;2022-12-13T19:46:55;7.00;;;5.40;;
51925;SDS011;37952;51.938;15.480;2022-12-13T19:49:58;7.10;;;5.30;;
51925;SDS011;37952;51.938;15.480;2022-12-13T19:53:03;5.70;;;4.80;;
51925;SDS011;37952;51.938;15.480;2022-12-13T19:56:07;7.00;;;5.50;;
51925;SDS011;37952;51.938;15.480;2022-12-13T19:59:12;7.70;;;6.40;;
51925;SDS011;37952;51.938;15.480;2022-12-13T20:02:15;7.10;;;6.30;;
51925;SDS011;37952;51.938;15.480;2022-12-13T20:05:18;8.00;;;6.40;;
51925;SDS011;37952;51.938;15.480;2022-12-13T20:08:21;8.20;;;6.40;;
51925;SDS011;37952;51.938;15.480;2022-12-13T20:11:24;10.30;;;7.00;;
51925;SDS011;37952;51.938;15.480;2022-12-13T20:14:27;19.30;;;9.30;;
51925;SDS011;37952;51.938;15.480;2022-12-13T20:17:30;27.70;;;10.10;;
51925;SDS011;37952;51.938;15.480;2022-12-13T20:20:34;24.60;;;10.50;;
51925;SDS011;37952;51.938;15.480;2022-12-13T20:23:57;26.80;;;10.40;;
51925;SDS011;37952;51.938;15.480;2022-12-13T20:27:00;17.30;;;9.80;;
51925;SDS011;37952;51.938;15.480;2022-12-13T20:30:03;14.70;;;9.10;;